Time;durP1;ratioP1;P1;durP2;ratioP2;P2;SDS_P1;SDS_P2;PMS_P1;PMS_P2;Temp;Humidity;BMP_temperature;BMP_pressure;BME280_temperature;BME280_humidity;BME280_pressure;Samples;Min_cycle;Max_cycle;Signal;HPM_P1;HPM_P2
2021/12/30 00:02:10;;;;;;;50.87;27.57;;;7.50;99.90;;;;;;4956737;28;20239;-63
2021/12/30 00:04:40;;;;;;;53.40;29.03;;;7.60;99.90;;;;;;4952434;28;20247;-63
2021/12/30 00:07:09;;;;;;;51.40;27.03;;;7.70;99.90;;;;;;4952935;28;20235;-63
2021/12/30 00:09:39;;;;;;;53.77;27.10;;;7.70;99.90;;;;;;4955485;28;20226;-63
2021/12/30 00:12:08;;;;;;;54.63;28.67;;;7.70;99.90;;;;;;4965435;28;20226;-63
2021/12/30 00:14:41;;;;;;;61.90;31.03;;;7.70;99.90;;;;;;4990678;28;20251;-63
2021/12/30 00:17:09;;;;;;;63.00;31.27;;;7.70;99.90;;;;;;4972141;28;20262;-63
2021/12/30 00:19:37;;;;;;;59.43;31.33;;;7.70;99.90;;;;;;4978994;28;20599;-65
2021/12/30 00:22:07;;;;;;;59.47;29.97;;;7.70;99.90;;;;;;4975988;28;20288;-63
2021/12/30 00:24:35;;;;;;;74.57;33.03;;;7.70;99.90;;;;;;4991006;28;20263;-63
2021/12/30 00:27:03;;;;;;;65.90;32.63;;;7.80;99.90;;;;;;4952646;28;20270;-63
2021/12/30 00:29:31;;;;;;;66.40;32.30;;;7.80;99.90;;;;;;4970074;28;20237;-63
2021/12/30 00:31:59;;;;;;;65.97;32.97;;;7.90;99.90;;;;;;4956377;28;20309;-63
2021/12/30 00:34:37;;;;;;;64.53;31.10;;;7.90;99.90;;;;;;3294285;28;10023497;-63
2021/12/30 00:37:06;;;;;;;69.13;32.87;;;7.90;99.90;;;;;;3243245;28;10002022;-64
2021/12/30 00:39:35;;;;;;;58.50;32.57;;;7.80;99.90;;;;;;4954451;28;20486;-63
2021/12/30 00:42:03;;;;;;;62.80;31.77;;;7.80;99.90;;;;;;4952228;28;20239;-64
2021/12/30 00:44:31;;;;;;;64.60;33.43;;;7.90;99.90;;;;;;4952114;28;20243;-64
2021/12/30 00:46:59;;;;;;;67.87;32.73;;;7.90;99.90;;;;;;4952381;28;20259;-63
2021/12/30 00:49:28;;;;;;;62.63;31.00;;;8.00;99.90;;;;;;4952020;28;20243;-63
2021/12/30 00:51:56;;;;;;;59.67;30.53;;;7.90;99.90;;;;;;4958080;28;20374;-63
2021/12/30 00:54:26;;;;;;;61.37;31.13;;;7.90;99.90;;;;;;4952361;28;20258;-63
2021/12/30 00:56:54;;;;;;;59.00;29.47;;;7.90;99.90;;;;;;4952117;28;20322;-63
2021/12/30 00:59:25;;;;;;;61.13;29.40;;;7.90;99.90;;;;;;4951353;28;20774;-64
2021/12/30 01:01:54;;;;;;;67.47;32.07;;;7.90;99.90;;;;;;4952121;28;20239;-64
2021/12/30 01:04:22;;;;;;;62.40;29.83;;;8.00;99.90;;;;;;4951414;28;20239;-65
2021/12/30 01:06:51;;;;;;;58.90;29.90;;;8.00;99.90;;;;;;4952370;28;20235;-63
2021/12/30 01:09:20;;;;;;;66.57;30.03;;;8.00;99.90;;;;;;4954396;28;20322;-63
2021/12/30 01:11:50;;;;;;;61.10;28.50;;;8.00;99.90;;;;;;4970735;28;20257;-63
2021/12/30 01:14:21;;;;;;;59.60;29.70;;;8.00;99.90;;;;;;4971557;28;20580;-63
2021/12/30 01:16:53;;;;;;;58.07;30.17;;;8.10;99.90;;;;;;4971235;28;20326;-63
2021/12/30 01:19:42;;;;;;;57.73;28.73;;;8.00;99.90;;;;;;4953707;28;20330;-63
2021/12/30 01:22:12;;;;;;;57.73;26.73;;;8.10;99.90;;;;;;4951965;28;20318;-64
2021/12/30 01:24:40;;;;;;;61.57;26.87;;;8.10;99.90;;;;;;4954453;28;20235;-64
2021/12/30 01:27:11;;;;;;;61.67;27.67;;;8.10;99.90;;;;;;4955156;28;20577;-64
2021/12/30 01:29:39;;;;;;;53.37;24.37;;;8.10;99.90;;;;;;4947415;28;20265;-63
2021/12/30 01:32:09;;;;;;;46.30;23.00;;;8.10;99.90;;;;;;4955607;28;20242;-63
2021/12/30 01:34:37;;;;;;;45.73;22.40;;;8.10;99.90;;;;;;4955353;28;20249;-63
2021/12/30 01:37:06;;;;;;;47.77;21.47;;;8.10;99.90;;;;;;4936276;28;20243;-65
2021/12/30 01:39:38;;;;;;;46.07;22.07;;;8.10;99.90;;;;;;4946985;28;20227;-63
2021/12/30 01:42:08;;;;;;;51.77;21.80;;;8.10;99.90;;;;;;4936163;29;20266;-63
2021/12/30 01:44:38;;;;;;;41.23;20.67;;;8.10;99.90;;;;;;4935972;29;20236;-63
2021/12/30 01:47:06;;;;;;;47.90;21.47;;;8.10;99.90;;;;;;4965652;28;20241;-63
2021/12/30 01:49:35;;;;;;;47.83;21.33;;;8.00;99.90;;;;;;4982084;28;20244;-63
2021/12/30 01:52:03;;;;;;;45.47;20.67;;;8.00;99.90;;;;;;4971124;28;20307;-63
2021/12/30 01:54:34;;;;;;;43.57;22.00;;;8.10;99.90;;;;;;4981330;28;20245;-64
2021/12/30 01:57:05;;;;;;;45.43;21.10;;;8.10;99.90;;;;;;4974432;28;20321;-63
2021/12/30 01:59:34;;;;;;;43.50;19.70;;;8.10;99.90;;;;;;4974207;28;20246;-63
2021/12/30 02:02:04;;;;;;;48.30;18.57;;;8.10;99.90;;;;;;4955499;28;20227;-63
2021/12/30 02:04:35;;;;;;;37.83;17.43;;;8.10;99.90;;;;;;4976946;28;20239;-63
2021/12/30 02:07:04;;;;;;;42.80;18.57;;;8.10;99.90;;;;;;4955026;28;20242;-63
2021/12/30 02:09:33;;;;;;;40.43;18.23;;;8.10;99.90;;;;;;4955342;28;20765;-63
2021/12/30 02:12:02;;;;;;;38.50;17.30;;;8.10;99.90;;;;;;4973437;28;20289;-64
2021/12/30 02:14:33;;;;;;;40.27;17.03;;;8.10;99.90;;;;;;4981495;28;20249;-64
2021/12/30 02:17:02;;;;;;;32.93;15.17;;;8.20;99.90;;;;;;4974136;28;20238;-63
2021/12/30 02:19:33;;;;;;;42.60;16.07;;;8.10;99.90;;;;;;4973833;28;20653;-63
2021/12/30 02:22:03;;;;;;;39.37;15.03;;;8.20;99.90;;;;;;4972939;28;20246;-63
2021/12/30 02:24:31;;;;;;;34.70;14.20;;;8.10;99.90;;;;;;4953887;28;20243;-63
2021/12/30 02:27:00;;;;;;;33.60;13.50;;;8.00;99.90;;;;;;4954020;28;20243;-63
2021/12/30 02:29:28;;;;;;;32.47;14.03;;;8.00;99.90;;;;;;4954175;28;20390;-64
2021/12/30 02:31:56;;;;;;;36.70;13.93;;;7.90;99.90;;;;;;4953993;28;20231;-63
2021/12/30 02:34:36;;;;;;;27.83;11.22;;;7.80;99.90;;;;;;3855945;28;10024296;-64
2021/12/30 02:37:07;;;;;;;32.65;13.25;;;7.80;99.90;;;;;;2744195;28;10002023;-63
2021/12/30 02:39:35;;;;;;;33.80;11.33;;;7.70;99.90;;;;;;4982013;28;20308;-63
2021/12/30 02:42:04;;;;;;;30.57;11.30;;;7.80;99.90;;;;;;4973566;28;20317;-63
2021/12/30 02:44:32;;;;;;;38.60;11.63;;;7.70;99.90;;;;;;4973394;28;20238;-63
2021/12/30 02:47:00;;;;;;;35.90;11.70;;;7.70;99.90;;;;;;4967349;28;20245;-63
2021/12/30 02:49:29;;;;;;;33.63;11.00;;;7.60;99.90;;;;;;4943737;28;20711;-64
2021/12/30 02:51:57;;;;;;;23.03;9.53;;;7.60;99.90;;;;;;4957761;28;20238;-63
2021/12/30 02:54:27;;;;;;;32.10;10.20;;;7.50;99.90;;;;;;4987015;28;20753;-63
2021/12/30 02:56:55;;;;;;;29.33;8.57;;;7.50;99.90;;;;;;4957868;28;20652;-63
2021/12/30 02:59:23;;;;;;;33.20;10.63;;;7.60;99.90;;;;;;4954096;28;20239;-64
2021/12/30 03:01:51;;;;;;;32.27;9.40;;;7.50;99.90;;;;;;4954132;28;20330;-63
2021/12/30 03:04:20;;;;;;;24.23;8.27;;;7.50;99.90;;;;;;4972654;28;20235;-63
2021/12/30 03:06:50;;;;;;;33.53;8.73;;;7.60;99.90;;;;;;4972920;28;20254;-63
2021/12/30 03:09:19;;;;;;;27.33;7.47;;;7.60;99.90;;;;;;4973336;28;20277;-63
2021/12/30 03:11:49;;;;;;;23.90;7.63;;;7.50;99.90;;;;;;4972815;28;20235;-63
2021/12/30 03:14:17;;;;;;;29.27;7.77;;;7.50;99.90;;;;;;4972438;28;20243;-63
2021/12/30 03:16:45;;;;;;;26.87;7.50;;;7.60;99.90;;;;;;4972703;28;20249;-63
2021/12/30 03:19:13;;;;;;;28.63;7.07;;;7.60;99.90;;;;;;4972957;28;20247;-63
2021/12/30 03:21:42;;;;;;;28.97;6.90;;;7.60;99.90;;;;;;4972621;28;20245;-63
2021/12/30 03:24:11;;;;;;;23.33;6.83;;;7.50;99.90;;;;;;4972312;28;20270;-63
2021/12/30 03:26:39;;;;;;;29.43;7.13;;;7.60;99.90;;;;;;4965640;28;20226;-63
2021/12/30 03:29:09;;;;;;;26.90;7.27;;;7.50;99.90;;;;;;4953606;28;20243;-63
2021/12/30 03:31:37;;;;;;;22.07;6.77;;;7.40;99.90;;;;;;4957150;28;20239;-63
2021/12/30 03:34:06;;;;;;;23.13;6.23;;;7.40;99.90;;;;;;4951033;28;20297;-63
2021/12/30 03:36:34;;;;;;;23.10;6.07;;;7.40;99.90;;;;;;4965301;28;20646;-63
2021/12/30 03:39:02;;;;;;;27.57;6.40;;;7.50;99.90;;;;;;4981073;28;20233;-64
2021/12/30 03:41:32;;;;;;;25.47;6.03;;;7.50;99.90;;;;;;4976528;28;20242;-63
2021/12/30 03:44:02;;;;;;;23.67;6.43;;;7.40;99.90;;;;;;4972073;28;20264;-63
2021/12/30 03:46:32;;;;;;;25.23;6.17;;;7.40;99.90;;;;;;4953930;28;20251;-63
2021/12/30 03:49:01;;;;;;;24.70;6.07;;;7.40;99.90;;;;;;4946339;28;20243;-63
2021/12/30 03:51:30;;;;;;;22.00;6.17;;;7.40;99.90;;;;;;4949233;28;20254;-63
2021/12/30 03:53:59;;;;;;;22.03;6.27;;;7.30;99.90;;;;;;4946971;28;20696;-63
2021/12/30 03:56:29;;;;;;;33.57;7.57;;;7.40;99.90;;;;;;4958499;28;20270;-63
2021/12/30 03:58:58;;;;;;;28.13;7.20;;;7.40;99.90;;;;;;4980879;28;20242;-63
2021/12/30 04:01:28;;;;;;;33.67;6.93;;;7.40;99.90;;;;;;4976843;28;20242;-64
2021/12/30 04:03:58;;;;;;;20.97;6.63;;;7.40;99.90;;;;;;4972208;28;20346;-64
2021/12/30 04:06:27;;;;;;;23.97;6.43;;;7.30;99.90;;;;;;4970813;28;20711;-64
2021/12/30 04:08:56;;;;;;;24.47;6.70;;;7.20;99.90;;;;;;4947102;28;20243;-63
2021/12/30 04:11:25;;;;;;;30.77;7.00;;;7.20;99.90;;;;;;4948782;28;20236;-63
2021/12/30 04:13:54;;;;;;;26.63;7.20;;;7.20;99.90;;;;;;4952822;28;20653;-64
2021/12/30 04:16:22;;;;;;;22.63;6.20;;;7.20;99.90;;;;;;4961468;28;20301;-65
2021/12/30 04:18:50;;;;;;;27.83;7.53;;;7.30;99.90;;;;;;4980981;28;20237;-64
2021/12/30 04:21:21;;;;;;;28.33;7.10;;;7.40;99.90;;;;;;4977729;28;20238;-63
2021/12/30 04:23:49;;;;;;;24.60;6.43;;;7.40;99.90;;;;;;4972026;28;20242;-63
2021/12/30 04:26:18;;;;;;;21.80;6.37;;;7.30;99.90;;;;;;4971213;28;20248;-63
2021/12/30 04:28:47;;;;;;;27.43;7.63;;;7.50;99.90;;;;;;4966946;28;20818;-63
2021/12/30 04:31:16;;;;;;;28.73;7.80;;;7.50;99.90;;;;;;4966864;28;20243;-64
2021/12/30 04:33:48;;;;;;;26.90;7.70;;;7.50;99.90;;;;;;4680698;28;10001318;-65
2021/12/30 04:36:16;;;;;;;29.80;8.00;;;7.30;99.90;;;;;;1363961;28;10001982;-63
2021/12/30 04:38:46;;;;;;;32.83;8.70;;;7.30;99.90;;;;;;4967202;28;20747;-63
2021/12/30 04:41:14;;;;;;;28.47;8.40;;;7.30;99.90;;;;;;4965281;28;20245;-63
2021/12/30 04:43:43;;;;;;;25.77;8.17;;;7.30;99.90;;;;;;4971584;28;20246;-63
2021/12/30 04:46:11;;;;;;;34.57;9.53;;;7.30;99.90;;;;;;4971100;28;20238;-63
2021/12/30 04:48:39;;;;;;;36.87;10.53;;;7.40;99.90;;;;;;4971465;28;20321;-63
2021/12/30 04:51:07;;;;;;;34.63;9.63;;;7.30;99.90;;;;;;4971528;28;20282;-63
2021/12/30 04:53:35;;;;;;;34.23;9.30;;;7.30;99.90;;;;;;4971729;28;20767;-63
2021/12/30 04:56:06;;;;;;;41.07;9.70;;;7.40;99.90;;;;;;4970651;28;20245;-63
2021/12/30 04:58:34;;;;;;;37.50;9.20;;;7.40;99.90;;;;;;4969522;28;20270;-63
2021/12/30 05:01:02;;;;;;;39.23;10.07;;;7.40;99.90;;;;;;4967322;28;20234;-63
2021/12/30 05:03:30;;;;;;;30.80;9.13;;;7.40;99.90;;;;;;4975334;28;20242;-63
2021/12/30 05:05:59;;;;;;;38.53;10.03;;;7.40;99.90;;;;;;4974869;28;20238;-63
2021/12/30 05:08:27;;;;;;;33.60;10.00;;;7.40;99.90;;;;;;4973049;28;20588;-63
2021/12/30 05:10:55;;;;;;;38.23;10.67;;;7.40;99.90;;;;;;4967514;28;20316;-63
2021/12/30 05:13:25;;;;;;;39.77;11.23;;;7.40;99.90;;;;;;4975380;28;20674;-63
2021/12/30 05:15:53;;;;;;;43.13;10.87;;;7.40;99.90;;;;;;4974686;28;20234;-64
2021/12/30 05:18:29;;;;;;;31.10;9.77;;;7.40;99.90;;;;;;4974972;28;20246;-63
2021/12/30 05:20:59;;;;;;;31.43;10.40;;;7.50;99.90;;;;;;4974743;28;20238;-63
2021/12/30 05:23:27;;;;;;;41.97;10.60;;;7.50;99.90;;;;;;4974811;28;20238;-63
2021/12/30 05:25:55;;;;;;;30.63;10.43;;;7.40;99.90;;;;;;4977423;28;20234;-63
2021/12/30 05:28:25;;;;;;;33.63;11.37;;;7.40;99.90;;;;;;4968700;28;20239;-64
2021/12/30 05:30:53;;;;;;;38.87;10.90;;;7.40;99.90;;;;;;4974792;28;20321;-64
2021/12/30 05:33:22;;;;;;;38.20;12.17;;;7.40;99.90;;;;;;4975235;28;20234;-63
2021/12/30 05:35:50;;;;;;;44.97;12.63;;;7.40;99.90;;;;;;4974222;28;20242;-63
2021/12/30 05:38:18;;;;;;;35.10;11.80;;;7.50;99.90;;;;;;4983224;28;20383;-63
2021/12/30 05:40:46;;;;;;;39.70;11.90;;;7.50;99.90;;;;;;4984603;28;20575;-64
2021/12/30 05:43:14;;;;;;;41.60;11.17;;;7.50;99.90;;;;;;4974336;28;20242;-63
2021/12/30 05:45:44;;;;;;;43.60;13.03;;;7.60;99.90;;;;;;4973745;28;20253;-63
2021/12/30 05:48:12;;;;;;;37.47;11.83;;;7.70;99.90;;;;;;4959923;28;20347;-63
2021/12/30 05:50:40;;;;;;;48.27;13.07;;;7.70;99.90;;;;;;4945220;28;20762;-63
2021/12/30 05:53:08;;;;;;;43.07;12.63;;;7.70;99.90;;;;;;4968170;28;20258;-63
2021/12/30 05:55:36;;;;;;;43.70;12.27;;;7.60;99.90;;;;;;4979272;28;20293;-63
2021/12/30 05:58:05;;;;;;;43.97;11.70;;;7.70;99.90;;;;;;4993955;28;20238;-63
2021/12/30 06:00:34;;;;;;;38.60;11.53;;;7.70;99.90;;;;;;4973616;28;20305;-63
2021/12/30 06:03:04;;;;;;;41.93;12.83;;;7.70;99.90;;;;;;4973878;28;20305;-65
2021/12/30 06:05:32;;;;;;;41.90;12.63;;;7.70;99.90;;;;;;4956561;28;20239;-63
2021/12/30 06:08:00;;;;;;;38.63;12.03;;;7.70;99.90;;;;;;4955108;28;20243;-63
2021/12/30 06:10:28;;;;;;;39.67;11.90;;;7.70;99.90;;;;;;4953685;28;20243;-63
2021/12/30 06:12:57;;;;;;;43.67;12.80;;;7.70;99.90;;;;;;4954885;28;20266;-64
2021/12/30 06:15:25;;;;;;;47.67;12.90;;;7.80;99.90;;;;;;4963138;28;20584;-63
2021/12/30 06:17:53;;;;;;;49.43;13.00;;;7.90;99.90;;;;;;4993288;28;20241;-65
2021/12/30 06:20:22;;;;;;;58.73;14.50;;;7.90;99.90;;;;;;4971569;28;20564;-63
2021/12/30 06:22:51;;;;;;;44.10;13.50;;;7.90;99.90;;;;;;4961799;28;20696;-63
2021/12/30 06:25:19;;;;;;;40.73;12.97;;;8.00;99.90;;;;;;4953344;28;20603;-63
2021/12/30 06:27:47;;;;;;;50.87;14.23;;;8.00;99.90;;;;;;4972527;28;20765;-63
2021/12/30 06:30:15;;;;;;;49.50;13.57;;;7.90;99.90;;;;;;4972101;28;20281;-63
2021/12/30 06:32:44;;;;;;;52.47;14.50;;;7.90;99.90;;;;;;4973192;28;20266;-63
2021/12/30 06:35:22;;;;;;;33.92;10.62;;;8.00;99.90;;;;;;1594078;28;10022793;-64
2021/12/30 06:37:51;;;;;;;46.23;13.63;;;8.00;99.90;;;;;;4628118;28;10000863;-63
2021/12/30 06:40:19;;;;;;;50.30;13.20;;;8.00;99.90;;;;;;4970142;28;20474;-63
2021/12/30 06:42:47;;;;;;;51.83;14.83;;;8.00;99.90;;;;;;4970724;28;20265;-63
2021/12/30 06:45:15;;;;;;;44.60;14.03;;;7.90;99.90;;;;;;4961405;28;20245;-63
2021/12/30 06:47:45;;;;;;;45.93;14.03;;;8.00;99.90;;;;;;4975155;28;20607;-63
2021/12/30 06:50:13;;;;;;;48.40;14.13;;;8.00;99.90;;;;;;4972467;28;20250;-63
2021/12/30 06:52:46;;;;;;;34.53;11.83;;;8.00;99.90;;;;;;4972763;28;20234;-63
2021/12/30 06:55:14;;;;;;;53.80;14.97;;;8.00;99.90;;;;;;4953311;28;20250;-63
2021/12/30 06:57:43;;;;;;;45.57;14.50;;;8.10;99.90;;;;;;4932310;28;20251;-63
2021/12/30 07:00:12;;;;;;;48.73;14.00;;;8.20;99.90;;;;;;4946161;28;20772;-63
2021/12/30 07:02:42;;;;;;;46.57;15.40;;;8.20;99.90;;;;;;4944365;28;20641;-63
2021/12/30 07:05:11;;;;;;;57.40;15.70;;;8.20;99.90;;;;;;4953833;28;20239;-63
2021/12/30 07:07:40;;;;;;;49.80;16.57;;;8.10;99.90;;;;;;4949044;28;20267;-63
2021/12/30 07:10:10;;;;;;;55.13;15.93;;;8.10;99.90;;;;;;4945041;28;20239;-65
2021/12/30 07:12:39;;;;;;;51.40;16.67;;;8.10;99.90;;;;;;4966732;28;20680;-63
2021/12/30 07:15:08;;;;;;;47.70;16.17;;;8.20;99.90;;;;;;4951616;28;20298;-63
2021/12/30 07:17:36;;;;;;;55.87;17.07;;;8.20;99.90;;;;;;4950419;28;20243;-63
2021/12/30 07:20:05;;;;;;;50.10;16.40;;;8.20;99.90;;;;;;4953371;28;20689;-63
2021/12/30 07:22:34;;;;;;;66.33;16.70;;;8.20;99.90;;;;;;4958610;28;20323;-63
2021/12/30 07:25:18;;;;;;;52.93;16.00;;;8.20;99.90;;;;;;4951638;28;20254;-63
2021/12/30 07:27:47;;;;;;;60.07;17.00;;;8.30;99.90;;;;;;4934392;28;20244;-63
2021/12/30 07:30:16;;;;;;;48.87;17.03;;;8.30;99.90;;;;;;4933847;28;20298;-63
2021/12/30 07:32:44;;;;;;;52.00;16.70;;;8.20;99.90;;;;;;4941223;28;21409;-63
2021/12/30 07:35:13;;;;;;;51.33;17.53;;;8.30;99.90;;;;;;4954748;28;21211;-63
2021/12/30 07:37:41;;;;;;;61.57;18.57;;;8.30;99.90;;;;;;4934809;28;20232;-63
2021/12/30 07:40:10;;;;;;;71.23;19.70;;;8.30;99.90;;;;;;4933999;28;20788;-63
2021/12/30 07:42:39;;;;;;;57.27;18.13;;;8.40;99.90;;;;;;4936024;28;20766;-63
2021/12/30 07:45:09;;;;;;;59.87;19.27;;;8.40;99.90;;;;;;4936909;28;20751;-63
2021/12/30 07:47:38;;;;;;;60.23;19.93;;;8.40;99.90;;;;;;4914922;29;20248;-63
2021/12/30 07:50:07;;;;;;;51.23;18.73;;;8.40;99.90;;;;;;4919835;28;20649;-63
2021/12/30 07:52:36;;;;;;;51.40;18.90;;;8.50;99.90;;;;;;4923961;28;20236;-63
2021/12/30 07:55:06;;;;;;;57.37;19.80;;;8.50;99.90;;;;;;4942116;28;20231;-63
2021/12/30 07:57:34;;;;;;;47.83;18.30;;;8.50;99.90;;;;;;4970834;28;20241;-64
2021/12/30 08:00:07;;;;;;;53.53;18.97;;;8.50;99.90;;;;;;4972111;28;20243;-63
2021/12/30 08:02:41;;;;;;;62.20;20.47;;;8.60;99.90;;;;;;4971679;28;20281;-63
2021/12/30 08:05:11;;;;;;;59.67;20.30;;;8.60;99.90;;;;;;4969632;28;20245;-63
2021/12/30 08:07:40;;;;;;;58.60;21.50;;;8.50;99.90;;;;;;4964094;28;20222;-63
2021/12/30 08:10:12;;;;;;;52.30;20.03;;;8.50;99.90;;;;;;4971412;28;20234;-63
2021/12/30 08:12:41;;;;;;;60.13;22.47;;;8.50;99.90;;;;;;4968991;28;20714;-64
2021/12/30 08:15:12;;;;;;;59.87;21.23;;;8.50;99.90;;;;;;4960512;28;20254;-63
2021/12/30 08:17:41;;;;;;;60.30;22.07;;;8.50;99.90;;;;;;4964084;28;20262;-63
2021/12/30 08:20:11;;;;;;;62.13;20.67;;;8.60;99.90;;;;;;4971560;28;20240;-63
2021/12/30 08:22:40;;;;;;;54.83;20.53;;;8.60;99.90;;;;;;4970036;28;20360;-63
2021/12/30 08:25:10;;;;;;;54.53;19.40;;;8.60;99.90;;;;;;4971059;28;20237;-63
2021/12/30 08:27:39;;;;;;;56.23;20.50;;;8.60;99.90;;;;;;4968779;28;20293;-63
2021/12/30 08:30:12;;;;;;;61.93;21.03;;;8.60;99.90;;;;;;4968983;28;20695;-63
2021/12/30 08:32:41;;;;;;;58.43;20.03;;;8.60;99.90;;;;;;4970083;28;20246;-63
2021/12/30 08:35:22;;;;;;;63.92;21.58;;;8.70;99.90;;;;;;1703648;28;10022931;-64
2021/12/30 08:37:51;;;;;;;57.50;21.63;;;8.70;99.90;;;;;;4626957;28;10001014;-63
2021/12/30 08:40:20;;;;;;;64.87;20.00;;;8.70;99.90;;;;;;4970730;28;20242;-65
2021/12/30 08:42:48;;;;;;;59.73;21.30;;;8.70;99.90;;;;;;4966031;28;20262;-63
2021/12/30 08:45:18;;;;;;;60.00;20.30;;;8.80;99.90;;;;;;4970211;28;20242;-64
2021/12/30 08:47:47;;;;;;;71.17;21.70;;;8.80;99.90;;;;;;4968529;28;20296;-63
2021/12/30 08:50:17;;;;;;;67.93;22.87;;;8.80;99.90;;;;;;4969548;28;20257;-63
2021/12/30 08:52:47;;;;;;;56.60;22.20;;;8.80;99.90;;;;;;4967912;28;20308;-63
2021/12/30 08:55:17;;;;;;;71.37;21.70;;;8.80;99.90;;;;;;4970692;28;20235;-64
2021/12/30 08:57:47;;;;;;;80.40;25.47;;;8.90;99.90;;;;;;4970972;28;20612;-63
2021/12/30 09:00:20;;;;;;;66.67;24.17;;;8.90;99.90;;;;;;4971094;28;20262;-63
2021/12/30 09:02:48;;;;;;;64.10;22.80;;;8.90;99.90;;;;;;4970940;28;20297;-63
2021/12/30 09:05:16;;;;;;;75.90;25.57;;;8.90;99.90;;;;;;4970972;28;20241;-64
2021/12/30 09:07:44;;;;;;;88.43;26.13;;;8.90;99.90;;;;;;4970720;28;20274;-63
2021/12/30 09:10:15;;;;;;;79.43;26.10;;;8.90;99.90;;;;;;4970639;28;20288;-63
2021/12/30 09:12:44;;;;;;;80.93;26.77;;;8.90;99.90;;;;;;4967911;28;20724;-63
2021/12/30 09:15:22;;;;;;;72.70;25.83;;;8.90;99.90;;;;;;4959960;28;20643;-63
2021/12/30 09:17:51;;;;;;;92.57;29.33;;;9.00;99.90;;;;;;4971741;28;20735;-63
2021/12/30 09:20:20;;;;;;;79.83;28.10;;;9.00;99.90;;;;;;4971429;28;20238;-63
2021/12/30 09:22:49;;;;;;;79.00;27.70;;;9.00;99.90;;;;;;4970843;28;20238;-63
2021/12/30 09:25:22;;;;;;;91.20;33.20;;;9.10;99.90;;;;;;4959821;28;20726;-63
2021/12/30 09:27:51;;;;;;;97.67;30.70;;;9.10;99.90;;;;;;4971512;28;20270;-63
2021/12/30 09:30:21;;;;;;;96.43;33.10;;;9.10;99.90;;;;;;4971302;28;20235;-63
2021/12/30 09:32:52;;;;;;;94.07;35.20;;;9.10;99.90;;;;;;4970813;28;20301;-63
2021/12/30 09:35:21;;;;;;;83.27;32.63;;;9.10;99.90;;;;;;4960483;28;20344;-63
2021/12/30 09:37:49;;;;;;;80.00;32.63;;;9.10;99.90;;;;;;4971306;28;20234;-64
2021/12/30 09:40:18;;;;;;;85.83;32.67;;;9.10;99.90;;;;;;4971152;28;20668;-63
2021/12/30 09:42:49;;;;;;;80.50;30.77;;;9.10;99.90;;;;;;4967636;28;20258;-63
2021/12/30 09:45:20;;;;;;;89.30;34.70;;;9.20;99.90;;;;;;4960301;28;20293;-63
2021/12/30 09:47:51;;;;;;;93.40;33.87;;;9.20;99.90;;;;;;4974811;28;20296;-63
2021/12/30 09:50:23;;;;;;;82.87;32.70;;;9.20;99.90;;;;;;4974383;28;20239;-64
2021/12/30 09:52:51;;;;;;;75.07;33.23;;;9.10;99.90;;;;;;4970179;28;20238;-63
2021/12/30 09:55:19;;;;;;;75.17;32.07;;;9.10;99.90;;;;;;4973268;28;20699;-63
2021/12/30 09:57:47;;;;;;;80.93;32.67;;;9.20;99.90;;;;;;4969617;28;20247;-63
2021/12/30 10:00:16;;;;;;;75.87;33.10;;;9.20;99.90;;;;;;4960023;28;20598;-63
2021/12/30 10:02:46;;;;;;;79.13;33.67;;;9.20;99.90;;;;;;4973941;28;20239;-63
2021/12/30 10:05:17;;;;;;;72.93;32.03;;;9.30;99.90;;;;;;4972901;28;20769;-63
2021/12/30 10:07:46;;;;;;;77.40;32.03;;;9.40;99.90;;;;;;4962895;28;20703;-63
2021/12/30 10:10:33;;;;;;;68.70;30.67;;;9.40;99.90;;;;;;4962147;28;20733;-63
2021/12/30 10:13:14;;;;;;;65.03;28.83;;;9.40;99.90;;;;;;4963911;28;20321;-63
2021/12/30 10:15:44;;;;;;;61.70;28.90;;;9.50;99.90;;;;;;4971222;28;20235;-63
2021/12/30 10:18:14;;;;;;;63.23;28.07;;;9.50;99.90;;;;;;4966048;28;20243;-63
2021/12/30 10:20:42;;;;;;;62.50;27.33;;;9.50;99.90;;;;;;4954819;28;20287;-63
2021/12/30 10:23:14;;;;;;;53.57;25.37;;;9.50;99.90;;;;;;4957084;28;20236;-63
2021/12/30 10:25:44;;;;;;;52.37;24.83;;;9.60;99.90;;;;;;4968731;28;20325;-63
2021/12/30 10:28:23;;;;;;;49.60;24.17;;;9.60;99.90;;;;;;4970260;28;20325;-63
2021/12/30 10:30:54;;;;;;;49.00;23.33;;;9.70;99.90;;;;;;4973591;28;20238;-63
2021/12/30 10:33:26;;;;;;;41.80;22.60;;;9.70;99.90;;;;;;4973461;28;20313;-64
2021/12/30 10:35:55;;;;;;;36.00;18.70;;;9.70;99.90;;;;;;4975914;28;20246;-63
2021/12/30 10:38:28;;;;;;;37.70;19.20;;;9.80;99.90;;;;;;4975227;28;20257;-63
2021/12/30 10:41:01;;;;;;;35.20;18.37;;;9.80;99.90;;;;;;4973470;28;20235;-63
2021/12/30 10:43:35;;;;;;;33.13;18.03;;;9.80;99.90;;;;;;4973564;28;20296;-63
2021/12/30 10:46:06;;;;;;;32.83;17.30;;;9.80;99.90;;;;;;4967800;28;20246;-63
2021/12/30 10:48:50;;;;;;;31.40;15.83;;;9.90;99.90;;;;;;4967780;28;20250;-63
2021/12/30 10:51:21;;;;;;;27.73;15.77;;;9.90;99.90;;;;;;4967923;28;20795;-64
2021/12/30 10:53:50;;;;;;;29.07;15.43;;;10.00;99.90;;;;;;4968023;28;20576;-63
2021/12/30 10:56:27;;;;;;;24.73;14.93;;;9.90;99.90;;;;;;4967595;28;20254;-63
2021/12/30 10:59:08;;;;;;;24.77;13.57;;;10.00;99.90;;;;;;4967116;28;20722;-64
2021/12/30 11:01:41;;;;;;;25.97;14.43;;;10.00;99.90;;;;;;4967988;28;20270;-64
2021/12/30 11:04:12;;;;;;;24.40;14.50;;;10.10;99.90;;;;;;4967104;28;20231;-64
2021/12/30 11:06:40;;;;;;;24.53;14.00;;;10.10;99.90;;;;;;4967973;28;21115;-65
2021/12/30 11:09:15;;;;;;;22.93;14.37;;;10.20;99.90;;;;;;4966310;28;20297;-63
2021/12/30 11:11:46;;;;;;;21.90;13.17;;;10.20;99.90;;;;;;4967321;28;20246;-63
2021/12/30 11:14:16;;;;;;;22.13;13.17;;;10.30;99.90;;;;;;4965745;28;20692;-64
2021/12/30 11:17:05;;;;;;;19.43;11.67;;;10.30;99.90;;;;;;4967729;28;20248;-64
2021/12/30 11:19:38;;;;;;;18.63;12.10;;;10.30;99.90;;;;;;4966348;28;20346;-63
2021/12/30 11:22:10;;;;;;;18.40;11.97;;;10.40;99.90;;;;;;4967422;28;20242;-63
2021/12/30 11:24:39;;;;;;;18.33;12.43;;;10.40;99.90;;;;;;4967435;28;20267;-63
2021/12/30 11:27:10;;;;;;;17.80;12.03;;;10.40;99.90;;;;;;4967815;28;20659;-63
2021/12/30 11:29:42;;;;;;;16.47;11.10;;;10.40;99.90;;;;;;4965952;28;20243;-64
2021/12/30 11:32:11;;;;;;;18.13;11.60;;;10.50;99.90;;;;;;4967850;28;20708;-63
2021/12/30 11:34:41;;;;;;;18.03;11.33;;;10.50;99.90;;;;;;4966810;28;20343;-62
2021/12/30 11:37:10;;;;;;;18.50;10.67;;;10.50;99.90;;;;;;4967652;28;20262;-61
2021/12/30 11:39:43;;;;;;;16.50;10.73;;;10.50;99.90;;;;;;4966189;28;20251;-60
2021/12/30 11:42:17;;;;;;;18.17;10.50;;;10.60;99.90;;;;;;4967691;28;21280;-61
2021/12/30 11:44:49;;;;;;;17.83;11.57;;;10.60;99.90;;;;;;4966887;28;20251;-61
2021/12/30 11:47:40;;;;;;;15.07;10.93;;;10.60;99.90;;;;;;4966178;28;20248;-61
2021/12/30 11:50:17;;;;;;;14.80;9.90;;;10.60;99.90;;;;;;4965503;28;20234;-61
2021/12/30 11:52:51;;;;;;;13.03;9.33;;;10.70;99.90;;;;;;4966150;28;20264;-62
2021/12/30 11:55:44;;;;;;;12.73;8.87;;;10.70;99.90;;;;;;4965920;28;20240;-62
2021/12/30 11:58:42;;;;;;;11.03;7.00;;;10.80;99.90;;;;;;4966582;28;20700;-62
2021/12/30 12:01:45;;;;;;;11.47;7.33;;;10.80;99.90;;;;;;4967101;28;20326;-60
2021/12/30 12:04:17;;;;;;;9.40;6.27;;;10.80;99.90;;;;;;4887025;29;20264;-61
2021/12/30 12:07:02;;;;;;;8.70;5.67;;;10.80;99.90;;;;;;4888224;29;20301;-61
2021/12/30 12:09:38;;;;;;;7.57;5.37;;;10.90;99.90;;;;;;4932660;28;20254;-61
2021/12/30 12:12:12;;;;;;;5.30;4.07;;;10.90;99.90;;;;;;4950476;28;20242;-62
2021/12/30 12:14:55;;;;;;;4.93;3.40;;;11.00;99.90;;;;;;4965617;28;20236;-62
2021/12/30 12:17:37;;;;;;;4.40;3.07;;;11.00;99.90;;;;;;4950746;28;20255;-61
2021/12/30 12:20:18;;;;;;;2.93;2.40;;;11.00;99.90;;;;;;4964426;28;20739;-62
2021/12/30 12:22:50;;;;;;;3.63;2.37;;;11.10;99.90;;;;;;4965392;28;20754;-61
2021/12/30 12:25:22;;;;;;;2.83;2.07;;;11.10;99.90;;;;;;4964937;28;20715;-63
2021/12/30 12:27:55;;;;;;;2.33;1.90;;;11.10;99.90;;;;;;4966691;28;20323;-60
2021/12/30 12:30:29;;;;;;;1.40;1.30;;;11.10;99.90;;;;;;4963966;28;20245;-61
2021/12/30 12:33:00;;;;;;;2.30;1.80;;;11.20;99.90;;;;;;4966684;28;20661;-62
2021/12/30 12:35:33;;;;;;;2.10;1.50;;;11.20;99.90;;;;;;4963712;28;20250;-61
2021/12/30 12:38:09;;;;;;;1.30;1.20;;;11.20;99.90;;;;;;4965381;28;20248;-62
2021/12/30 12:40:42;;;;;;;1.23;1.10;;;11.20;99.90;;;;;;4947775;28;20236;-61
2021/12/30 12:43:25;;;;;;;1.30;1.20;;;11.20;99.90;;;;;;4964125;28;20248;-61
2021/12/30 12:46:00;;;;;;;2.53;0.90;;;11.30;99.90;;;;;;4964685;28;20240;-62
2021/12/30 12:48:39;;;;;;;1.17;0.90;;;11.30;99.90;;;;;;4945802;28;20251;-62
2021/12/30 12:51:22;;;;;;;0.97;0.83;;;11.30;99.90;;;;;;4964718;28;20330;-61
2021/12/30 12:54:02;;;;;;;1.03;0.90;;;11.40;99.90;;;;;;4965485;28;20333;-61
2021/12/30 12:56:33;;;;;;;0.57;0.57;;;11.40;99.90;;;;;;4964921;28;20242;-61